Aeroporto :







RITROVATECI SU...

 
LOGIN :

Iscrizione | Disclaimer

   EN    FR    IT 

 









Sommario :    VFR   VFR Marginale   IFR   IFR Intensivo   IFR Molto Intensivo
Visibilità : 
Base nubi : 
>= 8 km
>= 3000ft
5 / 8 km
1000 / 3000 ft
1500m / 5 km
500 / 1000 ft
800 / 1500m
200 / 500 ft
< 800m
< 200 ft
Simboli :   Temporali  Nebbia  Neve Forte  Precipitazioni Forti  Vento > 20 kt






- Altitudine del aeroporto : 550 ft
- Codice IATA : MNI


TRPG - John A. Osborne

ULTIMO METAR :
  • 241700Z 07007KT 350V120 9999 FEW022 27/23 Q1017

METARs OBSOLETI :
  • 241600Z 10008KT 9999 FEW021 26/22 Q1018
  • 241500Z 09009KT 9999 SCT020 26/22 Q1018

TAF TAF TRPG
Valido dal 24 a 18 ore il 25 a 18 ore UTC


241700Z 2418/2518 09008KT 9999 SCT020
PROB30
TEMPO 2500/2518 SHRA



MetMap, La meteo Aeronautica in un colpo d'occhio ! - Copyright ORBIFLY Dicembre 2007 - Disclaimer

ORBIFLY MET'MAP TEAM :

Programmazione e sviluppo : Alexandra Zaïnal
Concezione : Baudouin d'Aumeries
Aiuto per la programmazione : Marc-Olivier Méhu
Supporto tecnico e logistico : Manuel Goepfert
Aiuto per la traduzione : Arnaldo La Scala

Contatto : metmap@orbifly.com




FONTI E CREDITI :

   NOAA